createdAt,value
2018-12-03T00:00:55.242Z,100.00
2018-12-03T00:02:00.876Z,100.00
2018-12-03T00:03:06.369Z,100.00
2018-12-03T00:04:11.870Z,100.00
2018-12-03T00:05:17.522Z,100.00
2018-12-03T00:06:23.230Z,100.00
2018-12-03T00:07:28.905Z,100.00
2018-12-03T00:08:34.581Z,100.00
2018-12-03T00:09:40.226Z,100.00
2018-12-03T00:10:45.522Z,100.00
2018-12-03T00:11:51.203Z,100.00
2018-12-03T00:12:56.876Z,100.00
2018-12-03T00:14:02.521Z,100.00
2018-12-03T00:15:07.462Z,100.00
2018-12-03T00:16:13.130Z,100.00
2018-12-03T00:17:18.811Z,100.00
2018-12-03T00:18:24.456Z,100.00
2018-12-03T00:19:30.136Z,100.00
2018-12-03T00:20:35.806Z,100.00
2018-12-03T00:21:41.473Z,100.00
2018-12-03T00:22:47.110Z,100.00
2018-12-03T00:23:52.834Z,100.00
2018-12-03T00:24:58.529Z,100.00
2018-12-03T00:26:04.708Z,100.00
2018-12-03T00:27:10.425Z,100.00
2018-12-03T00:28:16.055Z,100.00
2018-12-03T00:29:21.709Z,100.00
2018-12-03T00:30:27.345Z,100.00
2018-12-03T00:31:32.985Z,100.00
2018-12-03T00:32:38.617Z,100.00
2018-12-03T00:33:43.997Z,100.00
2018-12-03T00:34:49.651Z,100.00
2018-12-03T00:35:55.281Z,100.00
2018-12-03T00:37:00.929Z,100.00
2018-12-03T00:38:06.550Z,100.00
2018-12-03T00:39:12.216Z,100.00
2018-12-03T00:40:17.822Z,100.00
2018-12-03T00:41:23.466Z,100.00
2018-12-03T00:42:29.110Z,100.00
2018-12-03T00:43:34.815Z,100.00
2018-12-03T00:44:40.495Z,100.00
2018-12-03T00:45:45.773Z,100.00
2018-12-03T00:46:52.020Z,100.00
2018-12-03T00:47:57.776Z,100.00
2018-12-03T00:49:03.415Z,100.00
2018-12-03T00:50:08.355Z,100.00
2018-12-03T00:51:14.107Z,100.00
2018-12-03T00:52:19.477Z,100.00
2018-12-03T00:53:25.120Z,100.00
2018-12-03T00:54:30.805Z,100.00
2018-12-03T00:55:36.462Z,100.00
2018-12-03T00:56:42.133Z,100.00
2018-12-03T00:57:47.794Z,100.00
2018-12-03T00:58:53.507Z,100.00
2018-12-03T00:59:59.158Z,100.00
2018-12-03T01:01:04.134Z,100.00
2018-12-03T01:02:09.210Z,100.00
2018-12-03T01:03:14.845Z,100.00
2018-12-03T01:04:20.485Z,100.00
2018-12-03T01:05:26.192Z,100.00
2018-12-03T01:06:31.593Z,100.00
2018-12-03T01:07:36.897Z,100.00
2018-12-03T01:08:42.191Z,100.00
2018-12-03T01:09:47.849Z,100.00
2018-12-03T01:10:53.159Z,100.00
2018-12-03T01:11:58.816Z,100.00
2018-12-03T01:13:04.450Z,100.00
2018-12-03T01:14:10.091Z,100.00
2018-12-03T01:15:15.430Z,100.00
2018-12-03T01:16:21.062Z,100.00
2018-12-03T01:17:26.738Z,100.00
2018-12-03T01:18:32.403Z,100.00
2018-12-03T01:19:38.058Z,100.00
2018-12-03T01:20:43.720Z,100.00
2018-12-03T01:21:49.424Z,100.00
2018-12-03T01:22:54.715Z,100.00
2018-12-03T01:24:00.030Z,100.00
2018-12-03T01:25:04.987Z,100.00
2018-12-03T01:26:10.642Z,100.00
2018-12-03T01:27:16.323Z,100.00
2018-12-03T01:28:22.006Z,100.00
2018-12-03T01:29:27.650Z,100.00
2018-12-03T01:30:33.351Z,100.00
2018-12-03T01:31:39.065Z,100.00
2018-12-03T01:32:44.716Z,100.00
2018-12-03T01:33:50.334Z,100.00
2018-12-03T01:34:55.969Z,100.00
2018-12-03T01:36:01.608Z,100.00
2018-12-03T01:37:07.274Z,100.00
2018-12-03T01:38:12.920Z,100.00
2018-12-03T01:39:18.530Z,100.00
2018-12-03T01:40:23.851Z,100.00
2018-12-03T01:41:29.479Z,100.00
2018-12-03T01:42:35.137Z,100.00
2018-12-03T01:43:40.766Z,100.00
2018-12-03T01:44:46.450Z,100.00
2018-12-03T01:45:52.126Z,100.00
2018-12-03T01:46:57.787Z,100.00
2018-12-03T01:48:03.444Z,100.00
2018-12-03T01:49:08.811Z,100.00
2018-12-03T01:50:13.741Z,100.00
2018-12-03T01:51:19.429Z,100.00
2018-12-03T01:52:25.574Z,100.00
2018-12-03T01:53:31.574Z,100.00
2018-12-03T01:54:37.241Z,100.00
2018-12-03T01:55:42.887Z,100.00
2018-12-03T01:56:48.514Z,100.00
2018-12-03T01:57:54.204Z,100.00
2018-12-03T01:58:59.850Z,100.00
2018-12-03T02:00:04.812Z,100.00
2018-12-03T02:01:10.456Z,100.00
2018-12-03T02:02:16.185Z,100.00
2018-12-03T02:03:21.868Z,100.00
2018-12-03T02:04:27.533Z,100.00
2018-12-03T02:05:33.214Z,100.00
2018-12-03T02:06:38.863Z,100.00
2018-12-03T02:07:44.519Z,100.00
2018-12-03T02:08:50.181Z,100.00
2018-12-03T02:09:55.866Z,100.00
2018-12-03T02:11:01.504Z,100.00
2018-12-03T02:12:06.767Z,100.00
2018-12-03T02:13:12.430Z,100.00
2018-12-03T02:14:18.077Z,100.00
2018-12-03T02:15:23.763Z,100.00
2018-12-03T02:16:29.392Z,100.00
2018-12-03T02:17:35.068Z,100.00
2018-12-03T02:18:40.718Z,100.00
2018-12-03T02:19:46.342Z,100.00
2018-12-03T02:20:51.988Z,100.00
2018-12-03T02:21:57.311Z,100.00
2018-12-03T02:23:02.989Z,100.00
2018-12-03T02:24:08.669Z,100.00
2018-12-03T02:25:13.610Z,100.00
2018-12-03T02:26:19.288Z,100.00
2018-12-03T02:27:25.008Z,100.00
2018-12-03T02:28:30.751Z,100.00
2018-12-03T02:29:36.395Z,100.00
2018-12-03T02:30:42.013Z,100.00
2018-12-03T02:31:47.668Z,100.00
2018-12-03T02:32:53.328Z,100.00
2018-12-03T02:33:58.971Z,100.00
2018-12-03T02:35:03.956Z,100.00
2018-12-03T02:36:09.685Z,100.00
2018-12-03T02:37:15.299Z,100.00
2018-12-03T02:38:20.571Z,100.00
2018-12-03T02:39:26.238Z,100.00
2018-12-03T02:40:31.892Z,100.00
2018-12-03T02:41:37.556Z,100.00
2018-12-03T02:42:43.259Z,100.00
2018-12-03T02:43:48.900Z,100.00
2018-12-03T02:44:54.503Z,100.00
2018-12-03T02:46:00.177Z,100.00
2018-12-03T02:47:05.425Z,100.00
2018-12-03T02:48:11.087Z,100.00
2018-12-03T02:49:16.776Z,100.00
2018-12-03T02:50:22.381Z,100.00
2018-12-03T02:51:28.083Z,100.00
2018-12-03T02:52:33.718Z,100.00
2018-12-03T02:53:39.376Z,100.00
2018-12-03T02:54:45.025Z,100.00
2018-12-03T02:55:50.715Z,100.00
2018-12-03T02:56:56.333Z,100.00
2018-12-03T02:58:01.965Z,100.00
2018-12-03T02:59:07.574Z,100.00
2018-12-03T03:00:12.526Z,100.00
2018-12-03T03:01:18.206Z,100.00
2018-12-03T03:02:23.891Z,100.00
2018-12-03T03:03:29.616Z,100.00
2018-12-03T03:04:35.334Z,100.00
2018-12-03T03:05:40.977Z,100.00
2018-12-03T03:06:46.634Z,100.00
2018-12-03T03:07:52.327Z,100.00
2018-12-03T03:08:57.985Z,100.00
2018-12-03T03:10:03.007Z,100.00
2018-12-03T03:11:08.680Z,100.00
2018-12-03T03:12:14.313Z,100.00
2018-12-03T03:13:20.026Z,100.00
2018-12-03T03:14:25.696Z,100.00
2018-12-03T03:15:31.328Z,100.00
2018-12-03T03:16:37.094Z,100.00
2018-12-03T03:17:42.711Z,100.00
2018-12-03T03:18:48.404Z,100.00
2018-12-03T03:19:54.154Z,100.00
2018-12-03T03:20:59.795Z,100.00
2018-12-03T03:22:05.089Z,100.00
2018-12-03T03:23:10.722Z,100.00
2018-12-03T03:24:16.393Z,100.00
2018-12-03T03:25:22.069Z,100.00
2018-12-03T03:26:27.746Z,100.00
2018-12-03T03:27:33.393Z,100.00
2018-12-03T03:28:39.107Z,100.00
2018-12-03T03:29:44.821Z,100.00
2018-12-03T03:30:50.518Z,100.00
2018-12-03T03:31:56.139Z,100.00
2018-12-03T03:33:01.744Z,100.00
2018-12-03T03:34:07.446Z,100.00
2018-12-03T03:35:12.713Z,100.00
2018-12-03T03:36:18.335Z,100.00
2018-12-03T03:37:23.974Z,100.00
2018-12-03T03:38:29.608Z,100.00
2018-12-03T03:39:35.681Z,100.00
2018-12-03T03:40:41.622Z,100.00
2018-12-03T03:41:47.029Z,100.00
2018-12-03T03:42:52.111Z,100.00
2018-12-03T03:43:58.418Z,100.00
2018-12-03T03:45:03.158Z,100.00
2018-12-03T03:46:08.421Z,100.00
2018-12-03T03:47:14.049Z,100.00
2018-12-03T03:48:19.746Z,100.00
2018-12-03T03:49:25.405Z,100.00
2018-12-03T03:50:31.066Z,100.00
2018-12-03T03:51:37.628Z,100.00
2018-12-03T03:52:43.306Z,100.00
2018-12-03T03:53:48.973Z,100.00
2018-12-03T03:54:54.616Z,100.00
2018-12-03T03:56:00.265Z,100.00
2018-12-03T03:57:05.249Z,100.00
2018-12-03T03:58:10.902Z,100.00
2018-12-03T03:59:16.592Z,100.00
2018-12-03T04:00:22.214Z,100.00
2018-12-03T04:01:27.909Z,100.00
2018-12-03T04:02:33.592Z,100.00
2018-12-03T04:03:39.253Z,100.00
2018-12-03T04:04:44.957Z,100.00
2018-12-03T04:05:50.653Z,100.00
2018-12-03T04:06:56.330Z,100.00
2018-12-03T04:08:01.971Z,100.00
2018-12-03T04:09:07.033Z,100.00
2018-12-03T04:10:12.367Z,100.00
2018-12-03T04:11:18.045Z,100.00
2018-12-03T04:12:23.699Z,100.00
2018-12-03T04:13:29.394Z,100.00
2018-12-03T04:14:35.083Z,100.00
2018-12-03T04:15:40.659Z,100.00
2018-12-03T04:16:46.363Z,100.00
2018-12-03T04:17:52.166Z,100.00
2018-12-03T04:18:57.879Z,100.00
2018-12-03T04:20:03.141Z,100.00
2018-12-03T04:21:08.910Z,100.00
2018-12-03T04:22:14.583Z,100.00
2018-12-03T04:23:20.213Z,100.00
2018-12-03T04:24:25.887Z,100.00
2018-12-03T04:25:31.586Z,100.00
2018-12-03T04:26:37.317Z,100.00
2018-12-03T04:27:42.584Z,100.00
2018-12-03T04:28:48.261Z,100.00
2018-12-03T04:29:53.901Z,100.00
2018-12-03T04:30:59.540Z,100.00
2018-12-03T04:32:04.870Z,100.00
2018-12-03T04:33:10.257Z,100.00
2018-12-03T04:34:15.914Z,100.00
2018-12-03T04:35:21.553Z,100.00
2018-12-03T04:36:27.226Z,100.00
2018-12-03T04:37:32.898Z,100.00
2018-12-03T04:38:38.741Z,100.00
2018-12-03T04:39:44.382Z,100.00
2018-12-03T04:40:49.824Z,100.00
2018-12-03T04:41:55.511Z,100.00
2018-12-03T04:43:01.145Z,100.00
2018-12-03T04:44:06.835Z,100.00
2018-12-03T04:45:12.501Z,100.00
2018-12-03T04:46:18.175Z,100.00
2018-12-03T04:47:23.823Z,100.00
2018-12-03T04:48:29.460Z,100.00
2018-12-03T04:49:35.166Z,100.00
2018-12-03T04:50:40.794Z,100.00
2018-12-03T04:51:46.422Z,100.00
2018-12-03T04:52:52.069Z,100.00
2018-12-03T04:53:57.786Z,100.00
2018-12-03T04:55:03.463Z,100.00
2018-12-03T04:56:09.171Z,100.00
2018-12-03T04:57:14.839Z,100.00
2018-12-03T04:58:20.489Z,100.00
2018-12-03T04:59:26.235Z,100.00
2018-12-03T05:00:31.870Z,100.00
2018-12-03T05:01:37.514Z,100.00
2018-12-03T05:02:43.154Z,100.00
2018-12-03T05:03:49.021Z,100.00
2018-12-03T05:04:55.260Z,100.00
2018-12-03T05:06:01.665Z,100.00
2018-12-03T05:07:07.779Z,100.00
2018-12-03T05:08:13.478Z,100.00
2018-12-03T05:09:19.174Z,100.00
2018-12-03T05:10:24.885Z,100.00
2018-12-03T05:11:30.600Z,100.00
2018-12-03T05:12:36.557Z,100.00
2018-12-03T05:13:42.376Z,100.00
2018-12-03T05:14:48.258Z,100.00
2018-12-03T05:15:54.081Z,100.00
2018-12-03T05:16:59.762Z,100.00
2018-12-03T05:18:04.764Z,100.00
2018-12-03T05:19:10.462Z,100.00
2018-12-03T05:20:16.130Z,100.00
2018-12-03T05:21:21.776Z,100.00
2018-12-03T05:22:27.433Z,100.00
2018-12-03T05:23:33.261Z,100.00
2018-12-03T05:24:38.952Z,100.00
2018-12-03T05:25:44.629Z,100.00
2018-12-03T05:26:50.309Z,100.00
2018-12-03T05:27:56.000Z,100.00
2018-12-03T05:29:01.711Z,100.00
2018-12-03T05:30:06.673Z,100.00
2018-12-03T05:31:12.321Z,100.00
2018-12-03T05:32:17.959Z,100.00
2018-12-03T05:33:23.631Z,100.00
2018-12-03T05:34:29.309Z,100.00
2018-12-03T05:35:34.983Z,100.00
2018-12-03T05:36:40.612Z,100.00
2018-12-03T05:37:46.276Z,100.00
2018-12-03T05:38:51.904Z,100.00
2018-12-03T05:39:57.573Z,100.00
2018-12-03T05:41:03.214Z,100.00
2018-12-03T05:42:08.581Z,100.00
2018-12-03T05:43:14.252Z,100.00
2018-12-03T05:44:19.897Z,100.00
2018-12-03T05:45:25.553Z,100.00
2018-12-03T05:46:31.197Z,100.00
2018-12-03T05:47:36.845Z,100.00
2018-12-03T05:48:42.468Z,100.00
2018-12-03T05:49:48.160Z,100.00
2018-12-03T05:50:53.842Z,100.00
2018-12-03T05:51:59.505Z,100.00
2018-12-03T05:53:04.795Z,100.00
2018-12-03T05:54:10.430Z,100.00
2018-12-03T05:55:16.101Z,100.00
2018-12-03T05:56:21.789Z,100.00
2018-12-03T05:57:27.441Z,100.00
2018-12-03T05:58:33.111Z,100.00
2018-12-03T05:59:38.725Z,100.00
2018-12-03T06:00:44.408Z,100.00
2018-12-03T06:01:50.061Z,100.00
2018-12-03T06:02:55.696Z,100.00
2018-12-03T06:04:01.325Z,100.00
2018-12-03T06:05:06.323Z,100.00
2018-12-03T06:06:11.973Z,100.00
2018-12-03T06:07:17.573Z,100.00
2018-12-03T06:08:23.225Z,100.00
2018-12-03T06:09:28.922Z,100.00
2018-12-03T06:10:34.706Z,100.00
2018-12-03T06:11:40.341Z,100.00
2018-12-03T06:12:46.013Z,100.00
2018-12-03T06:13:51.658Z,100.00
2018-12-03T06:14:57.298Z,100.00
2018-12-03T06:16:02.956Z,100.00
2018-12-03T06:17:08.597Z,100.00
2018-12-03T06:18:14.257Z,100.00
2018-12-03T06:19:19.909Z,100.00
2018-12-03T06:20:25.580Z,100.00
2018-12-03T06:21:31.212Z,100.00
2018-12-03T06:22:36.853Z,100.00
2018-12-03T06:23:42.499Z,100.00
2018-12-03T06:24:48.134Z,100.00
2018-12-03T06:25:53.824Z,100.00
2018-12-03T06:26:59.504Z,100.00
2018-12-03T06:28:04.773Z,100.00
2018-12-03T06:29:10.414Z,100.00
2018-12-03T06:30:15.758Z,100.00
2018-12-03T06:31:23.110Z,100.00
2018-12-03T06:32:28.910Z,100.00
2018-12-03T06:33:34.568Z,100.00
2018-12-03T06:34:40.179Z,100.00
2018-12-03T06:35:45.850Z,100.00
2018-12-03T06:36:51.502Z,100.00
2018-12-03T06:37:57.089Z,100.00
2018-12-03T06:39:02.715Z,100.00
2018-12-03T06:40:07.705Z,100.00
2018-12-03T06:41:13.361Z,100.00
2018-12-03T06:42:18.972Z,100.00
2018-12-03T06:43:24.597Z,100.00
2018-12-03T06:44:30.259Z,100.00
2018-12-03T06:45:35.938Z,100.00
2018-12-03T06:46:41.535Z,100.00
2018-12-03T06:47:47.185Z,100.00
2018-12-03T06:48:52.804Z,100.00
2018-12-03T06:49:58.465Z,100.00
2018-12-03T06:51:03.733Z,100.00
2018-12-03T06:52:09.429Z,100.00
2018-12-03T06:53:15.087Z,100.00
2018-12-03T06:54:20.731Z,100.00
2018-12-03T06:55:26.395Z,100.00
2018-12-03T06:56:32.024Z,100.00
2018-12-03T06:57:37.694Z,100.00
2018-12-03T06:58:43.338Z,100.00
2018-12-03T06:59:48.973Z,100.00
2018-12-03T07:00:54.659Z,100.00
2018-12-03T07:02:00.561Z,100.00
2018-12-03T07:03:05.509Z,100.00
2018-12-03T07:04:21.568Z,100.00
2018-12-03T07:05:30.341Z,100.00
2018-12-03T07:06:37.712Z,100.00
2018-12-03T07:07:43.845Z,100.00
2018-12-03T07:08:50.789Z,100.00
2018-12-03T07:09:57.928Z,100.00
2018-12-03T07:11:05.334Z,100.00
2018-12-03T07:12:12.189Z,100.00
2018-12-03T07:13:18.299Z,100.00
2018-12-03T07:14:24.949Z,100.00
2018-12-03T07:15:30.975Z,100.00
2018-12-03T07:16:37.687Z,100.00
2018-12-03T07:17:45.507Z,100.00
2018-12-03T07:18:52.526Z,100.00
2018-12-03T07:19:59.408Z,100.00
2018-12-03T07:21:06.141Z,100.00
2018-12-03T07:22:13.151Z,100.00
2018-12-03T07:23:21.185Z,100.00
2018-12-03T07:24:27.776Z,100.00
2018-12-03T07:25:35.154Z,100.00
2018-12-03T07:26:41.525Z,100.00
2018-12-03T07:27:47.752Z,100.00
2018-12-03T07:28:54.105Z,100.00
2018-12-03T07:30:00.151Z,100.00
2018-12-03T07:31:05.786Z,100.00
2018-12-03T07:32:12.296Z,100.00
2018-12-03T07:33:18.441Z,100.00
2018-12-03T07:34:24.629Z,100.00
2018-12-03T07:35:30.805Z,100.00
2018-12-03T07:36:37.130Z,100.00
2018-12-03T07:37:43.385Z,100.00
2018-12-03T07:38:49.360Z,100.00
2018-12-03T07:39:55.657Z,100.00
2018-12-03T07:41:01.538Z,100.00
2018-12-03T07:42:07.635Z,100.00
2018-12-03T07:43:13.950Z,100.00
2018-12-03T07:44:19.978Z,100.00
2018-12-03T07:45:26.081Z,100.00
2018-12-03T07:46:33.087Z,100.00
2018-12-03T07:47:39.433Z,100.00
2018-12-03T07:48:45.558Z,100.00
2018-12-03T07:49:52.076Z,100.00
2018-12-03T07:50:58.981Z,100.00
2018-12-03T07:52:04.931Z,100.00
2018-12-03T07:53:11.185Z,100.00
2018-12-03T07:54:17.092Z,100.00
2018-12-03T07:55:23.672Z,100.00
2018-12-03T07:56:32.017Z,100.00
2018-12-03T07:57:38.273Z,100.00
2018-12-03T07:59:05.765Z,100.00
2018-12-03T08:00:12.184Z,100.00
2018-12-03T08:01:28.942Z,100.00
2018-12-03T08:02:38.011Z,100.00
2018-12-03T08:03:44.200Z,100.00
2018-12-03T08:04:50.048Z,100.00
2018-12-03T08:05:55.664Z,100.00
2018-12-03T08:07:01.049Z,100.00
2018-12-03T08:08:06.521Z,100.00
2018-12-03T08:09:12.257Z,100.00
2018-12-03T08:10:17.970Z,100.00
2018-12-03T08:11:31.981Z,100.00
2018-12-03T08:12:50.930Z,100.00
2018-12-03T08:13:56.610Z,100.00
2018-12-03T08:15:02.973Z,100.00
2018-12-03T08:16:15.567Z,100.00
2018-12-03T08:17:21.192Z,100.00
2018-12-03T08:18:26.829Z,100.00
2018-12-03T08:19:32.430Z,100.00
2018-12-03T08:20:38.569Z,100.00
2018-12-03T08:21:44.240Z,100.00
2018-12-03T08:22:49.901Z,100.00
2018-12-03T08:23:55.523Z,100.00
2018-12-03T08:25:01.161Z,100.00
2018-12-03T08:26:06.424Z,100.00
2018-12-03T08:27:12.076Z,100.00
2018-12-03T08:28:17.782Z,100.00
2018-12-03T08:29:23.464Z,100.00
2018-12-03T08:30:29.111Z,100.00
2018-12-03T08:31:34.761Z,100.00
2018-12-03T08:32:40.401Z,100.00
2018-12-03T08:33:46.041Z,100.00
2018-12-03T08:34:52.202Z,100.00
2018-12-03T08:35:58.230Z,100.00
2018-12-03T08:37:03.887Z,100.00
2018-12-03T08:38:09.560Z,100.00
2018-12-03T08:39:15.239Z,100.00
2018-12-03T08:40:20.881Z,100.00
2018-12-03T08:41:26.517Z,100.00
2018-12-03T08:42:32.195Z,100.00
2018-12-03T08:43:37.462Z,100.00
2018-12-03T08:44:43.068Z,100.00
2018-12-03T08:45:48.682Z,100.00
2018-12-03T08:46:54.023Z,100.00
2018-12-03T08:47:59.749Z,100.00
2018-12-03T08:49:04.665Z,100.00
2018-12-03T08:50:09.633Z,100.00
2018-12-03T08:51:15.303Z,100.00
2018-12-03T08:52:21.457Z,100.00
2018-12-03T08:53:27.746Z,100.00
2018-12-03T08:54:33.400Z,100.00
2018-12-03T08:55:39.511Z,100.00
2018-12-03T08:56:48.324Z,100.00
2018-12-03T08:57:53.976Z,100.00
2018-12-03T08:58:59.579Z,100.00
2018-12-03T09:00:04.509Z,100.00
2018-12-03T09:01:10.139Z,100.00
2018-12-03T09:02:15.767Z,100.00
2018-12-03T09:03:21.417Z,100.00
2018-12-03T09:04:27.102Z,100.00
2018-12-03T09:05:32.705Z,100.00
2018-12-03T09:06:38.314Z,100.00
2018-12-03T09:07:43.996Z,100.00
2018-12-03T09:08:49.613Z,100.00
2018-12-03T09:09:55.213Z,100.00
2018-12-03T09:11:00.835Z,100.00
2018-12-03T09:12:06.488Z,100.00
2018-12-03T09:13:12.118Z,100.00
2018-12-03T09:14:17.768Z,100.00
2018-12-03T09:15:23.047Z,100.00
2018-12-03T09:16:28.664Z,100.00
2018-12-03T09:17:34.334Z,100.00
2018-12-03T09:18:39.966Z,100.00
2018-12-03T09:19:44.927Z,100.00
2018-12-03T09:20:50.636Z,100.00
2018-12-03T09:21:56.349Z,100.00
2018-12-03T09:23:02.019Z,100.00
2018-12-03T09:24:07.319Z,100.00
2018-12-03T09:25:12.065Z,100.00
2018-12-03T09:26:18.324Z,100.00
2018-12-03T09:27:23.989Z,100.00
2018-12-03T09:28:28.756Z,100.00
2018-12-03T09:29:34.360Z,100.00
2018-12-03T09:30:40.039Z,100.00
2018-12-03T09:31:45.662Z,100.00
2018-12-03T09:32:51.308Z,100.00
2018-12-03T09:33:56.609Z,100.00
2018-12-03T09:35:01.564Z,100.00
2018-12-03T09:36:06.484Z,100.00
2018-12-03T09:37:12.155Z,100.00
2018-12-03T09:38:17.798Z,100.00
2018-12-03T09:39:23.400Z,100.00
2018-12-03T09:40:29.074Z,100.00
2018-12-03T09:41:34.743Z,100.00
2018-12-03T09:42:40.388Z,100.00
2018-12-03T09:43:46.032Z,100.00
2018-12-03T09:44:51.660Z,100.00
2018-12-03T09:45:57.388Z,100.00
2018-12-03T09:47:03.680Z,100.00
2018-12-03T09:48:09.313Z,100.00
2018-12-03T09:49:14.985Z,100.00
2018-12-03T09:50:20.293Z,100.00
2018-12-03T09:51:25.063Z,100.00
2018-12-03T09:52:30.741Z,100.00
2018-12-03T09:53:36.389Z,100.00
2018-12-03T09:54:42.012Z,100.00
2018-12-03T09:55:47.625Z,100.00
2018-12-03T09:56:52.911Z,100.00
2018-12-03T09:57:58.221Z,100.00
2018-12-03T09:59:02.960Z,100.00
2018-12-03T10:00:07.661Z,100.00
2018-12-03T10:01:13.350Z,100.00
2018-12-03T10:02:18.406Z,100.00
2018-12-03T10:03:24.080Z,100.00
2018-12-03T10:04:29.685Z,100.00
2018-12-03T10:05:35.337Z,100.00
2018-12-03T10:06:40.941Z,100.00
2018-12-03T10:07:50.232Z,100.00
2018-12-03T10:08:55.846Z,100.00
2018-12-03T10:10:01.471Z,100.00
2018-12-03T10:11:06.434Z,99.25
2018-12-03T10:12:11.417Z,98.95
2018-12-03T10:13:17.123Z,98.35
2018-12-03T10:14:22.738Z,99.32
2018-12-03T10:15:28.053Z,99.13
2018-12-03T10:16:33.673Z,98.87
2018-12-03T10:17:39.317Z,98.32
2018-12-03T10:18:44.055Z,98.92
2018-12-03T10:19:48.978Z,97.21
2018-12-03T10:20:54.294Z,96.47
2018-12-03T10:21:59.962Z,96.44
2018-12-03T10:23:05.234Z,95.68
2018-12-03T10:24:10.180Z,96.15
2018-12-03T10:25:15.946Z,96.08
2018-12-03T10:26:21.559Z,95.66
2018-12-03T10:27:27.213Z,95.38
2018-12-03T10:28:33.376Z,95.17
2018-12-03T10:29:39.328Z,94.41
2018-12-03T10:30:44.899Z,95.25
2018-12-03T10:31:50.861Z,96.14
2018-12-03T10:32:56.504Z,96.47
2018-12-03T10:34:01.915Z,96.56
2018-12-03T10:35:06.876Z,96.37
2018-12-03T10:36:12.211Z,96.82
2018-12-03T10:37:17.859Z,96.59
2018-12-03T10:38:23.563Z,97.16
2018-12-03T10:39:29.179Z,97.08
2018-12-03T10:40:34.109Z,96.48
2018-12-03T10:41:39.410Z,95.37
2018-12-03T10:42:44.665Z,95.43
2018-12-03T10:43:50.401Z,96.43
2018-12-03T10:44:56.005Z,97.56
2018-12-03T10:46:01.297Z,97.49
2018-12-03T10:47:06.593Z,96.75
2018-12-03T10:48:12.275Z,97.01
2018-12-03T10:49:17.886Z,96.48
2018-12-03T10:50:23.659Z,95.62
2018-12-03T10:51:28.943Z,95.99
2018-12-03T10:52:34.614Z,95.93
2018-12-03T10:53:39.913Z,94.97
2018-12-03T10:54:45.190Z,95.36
2018-12-03T10:55:50.821Z,95.09
2018-12-03T10:56:55.755Z,94.13
2018-12-03T10:58:01.037Z,93.08
2018-12-03T10:59:06.093Z,92.92
2018-12-03T11:00:10.792Z,92.93
2018-12-03T11:01:21.286Z,92.84
2018-12-03T11:02:29.903Z,93.63
2018-12-03T11:03:41.013Z,94.04
2018-12-03T11:04:45.737Z,93.14
2018-12-03T11:07:24.533Z,93.17
2018-12-03T11:08:30.187Z,94.22
2018-12-03T11:09:35.774Z,94.36
2018-12-03T11:10:41.034Z,94.06
2018-12-03T11:11:46.122Z,94.84
2018-12-03T11:12:51.853Z,94.15
2018-12-03T11:13:57.317Z,92.90
2018-12-03T11:15:02.990Z,92.76
2018-12-03T11:16:08.806Z,93.61
2018-12-03T11:17:15.018Z,93.35
2018-12-03T11:18:20.569Z,92.97
2018-12-03T11:19:26.983Z,93.90
2018-12-03T11:20:33.117Z,93.94
2018-12-03T11:21:38.553Z,93.22
2018-12-03T11:22:43.806Z,93.34
2018-12-03T11:23:48.804Z,92.30
2018-12-03T11:24:54.402Z,92.71
2018-12-03T11:26:00.108Z,93.31
2018-12-03T11:27:05.364Z,92.83
2018-12-03T11:28:10.269Z,90.50
2018-12-03T11:29:15.226Z,90.33
2018-12-03T11:30:20.481Z,89.92
2018-12-03T11:31:25.777Z,90.22
2018-12-03T11:32:31.385Z,90.89
2018-12-03T11:33:36.982Z,90.93
2018-12-03T11:34:42.637Z,90.04
2018-12-03T11:35:48.227Z,90.12
2018-12-03T11:36:53.861Z,90.42
2018-12-03T11:37:58.792Z,90.57
2018-12-03T11:39:03.511Z,89.99
2018-12-03T11:40:08.210Z,90.17
2018-12-03T11:41:13.829Z,91.03
2018-12-03T11:42:19.478Z,90.09
2018-12-03T11:43:25.118Z,91.12
2018-12-03T11:44:30.803Z,91.11
2018-12-03T11:45:36.485Z,90.46
2018-12-03T11:46:41.237Z,90.66
2018-12-03T11:47:46.520Z,89.84
2018-12-03T11:48:52.173Z,90.19
2018-12-03T11:49:57.474Z,91.68
2018-12-03T11:51:03.184Z,92.63
2018-12-03T11:52:08.491Z,92.75
2018-12-03T11:53:14.150Z,94.13
2018-12-03T11:54:19.789Z,96.01
2018-12-03T11:55:25.427Z,96.77
2018-12-03T11:56:31.235Z,98.10
2018-12-03T11:57:37.229Z,98.92
2018-12-03T11:58:44.233Z,99.74
2018-12-03T11:59:50.639Z,100.00
2018-12-03T12:00:57.019Z,100.00
2018-12-03T12:02:03.282Z,100.00
2018-12-03T12:03:09.884Z,100.00
2018-12-03T12:04:16.434Z,99.76
2018-12-03T12:05:23.525Z,99.18
2018-12-03T12:06:29.962Z,99.79
2018-12-03T12:07:42.213Z,99.60
2018-12-03T12:08:42.225Z,97.45
2018-12-03T12:09:48.216Z,97.14
2018-12-03T12:10:53.509Z,96.83
2018-12-03T12:11:58.790Z,97.01
2018-12-03T12:13:04.083Z,95.90
2018-12-03T12:14:09.053Z,96.32
2018-12-03T12:15:14.767Z,96.05
2018-12-03T12:16:20.386Z,96.49
2018-12-03T12:17:25.991Z,94.90
2018-12-03T12:18:31.629Z,95.79
2018-12-03T12:19:37.260Z,96.85
2018-12-03T12:20:42.938Z,96.75
2018-12-03T12:21:47.913Z,96.13
2018-12-03T12:22:53.523Z,96.70
2018-12-03T12:23:59.142Z,97.23
2018-12-03T12:25:04.101Z,96.07
2018-12-03T12:26:09.722Z,96.65
2018-12-03T12:27:15.433Z,97.39
2018-12-03T12:28:21.029Z,96.44
2018-12-03T12:29:26.618Z,96.12
2018-12-03T12:30:32.260Z,96.36
2018-12-03T12:31:37.902Z,96.46
2018-12-03T12:32:43.487Z,96.46
2018-12-03T12:33:49.121Z,96.70
2018-12-03T12:34:54.769Z,95.06
2018-12-03T12:36:01.179Z,95.35
2018-12-03T12:37:06.537Z,95.36
2018-12-03T12:38:11.786Z,95.51
2018-12-03T12:39:17.085Z,94.40
2018-12-03T12:40:22.338Z,93.95
2018-12-03T12:41:27.921Z,93.63
2018-12-03T12:42:33.566Z,92.82
2018-12-03T12:43:39.217Z,93.59
2018-12-03T12:44:44.843Z,93.72
2018-12-03T12:45:50.510Z,94.89
2018-12-03T12:46:56.209Z,93.91
2018-12-03T12:48:02.051Z,93.28
2018-12-03T12:49:08.247Z,92.68
2018-12-03T12:50:13.788Z,94.13
2018-12-03T12:51:19.276Z,94.29
2018-12-03T12:52:25.666Z,95.16
2018-12-03T12:53:32.017Z,93.53
2018-12-03T12:54:38.367Z,93.91
2018-12-03T12:55:44.517Z,94.72
2018-12-03T12:56:50.574Z,93.70
2018-12-03T12:57:56.234Z,93.88
2018-12-03T12:59:01.526Z,94.07
2018-12-03T13:00:06.455Z,92.83
2018-12-03T13:01:12.138Z,92.28
2018-12-03T13:02:17.436Z,92.45
2018-12-03T13:03:23.085Z,89.62
2018-12-03T13:04:28.676Z,90.31
2018-12-03T13:05:34.311Z,89.78
2018-12-03T13:06:39.994Z,90.02
2018-12-03T13:07:45.590Z,89.25
2018-12-03T13:08:51.203Z,89.41
2018-12-03T13:09:56.825Z,88.04
2018-12-03T13:11:02.440Z,88.27
2018-12-03T13:12:07.708Z,88.79
2018-12-03T13:13:13.349Z,88.89
2018-12-03T13:14:19.028Z,87.61
2018-12-03T13:15:24.685Z,86.17
2018-12-03T13:16:30.352Z,86.10
2018-12-03T13:17:35.990Z,86.12
2018-12-03T13:18:41.663Z,86.95
2018-12-03T13:19:47.521Z,87.39
2018-12-03T13:20:53.152Z,88.12
2018-12-03T13:21:58.810Z,86.79
2018-12-03T13:23:04.057Z,86.46
2018-12-03T13:24:09.814Z,86.60
2018-12-03T13:25:15.419Z,86.81
2018-12-03T13:26:20.694Z,86.65
2018-12-03T13:27:26.306Z,87.16
2018-12-03T13:28:31.914Z,87.38
2018-12-03T13:29:37.589Z,86.73
2018-12-03T13:30:43.241Z,86.64
2018-12-03T13:31:48.829Z,87.24
2018-12-03T13:32:54.050Z,87.28
2018-12-03T13:33:59.325Z,86.30
2018-12-03T13:35:04.286Z,85.80
2018-12-03T13:36:10.041Z,86.47
2018-12-03T13:37:16.284Z,87.23
2018-12-03T13:38:22.434Z,87.31
2018-12-03T13:39:29.027Z,86.47
2018-12-03T13:40:34.997Z,86.64
2018-12-03T13:41:41.502Z,86.84
2018-12-03T13:42:49.002Z,86.12
2018-12-03T13:43:55.382Z,85.57
2018-12-03T13:45:01.522Z,86.28
2018-12-03T13:46:07.390Z,86.34
2018-12-03T13:47:12.766Z,85.10
2018-12-03T13:48:18.380Z,84.76
2018-12-03T13:49:24.004Z,84.44